createdAt,value
2022-08-30T00:00:32.797Z,17.4
2022-08-30T00:01:33.497Z,17.4
2022-08-30T00:02:34.159Z,17.4
2022-08-30T00:03:34.737Z,17.5
2022-08-30T00:04:35.262Z,17.5
2022-08-30T00:05:35.639Z,17.5
2022-08-30T00:06:36.415Z,17.5
2022-08-30T00:07:36.786Z,17.5
2022-08-30T00:08:37.181Z,17.5
2022-08-30T00:09:37.589Z,17.5
2022-08-30T00:10:37.988Z,17.5
2022-08-30T00:11:38.702Z,17.5
2022-08-30T00:12:39.093Z,17.6
2022-08-30T00:13:39.466Z,17.6
2022-08-30T00:14:39.834Z,17.6
2022-08-30T00:15:40.241Z,17.5
2022-08-30T00:16:41.105Z,17.5
2022-08-30T00:17:41.477Z,17.6
2022-08-30T00:18:41.877Z,17.6
2022-08-30T00:19:42.266Z,17.6
2022-08-30T00:20:42.631Z,17.6
2022-08-30T00:21:43.342Z,17.6
2022-08-30T00:22:43.715Z,17.6
2022-08-30T00:23:44.122Z,17.6
2022-08-30T00:24:44.531Z,17.6
2022-08-30T00:25:44.939Z,17.6
2022-08-30T00:26:45.739Z,17.6
2022-08-30T00:27:46.101Z,17.6
2022-08-30T00:28:47.146Z,17.6
2022-08-30T00:29:47.551Z,17.6
2022-08-30T00:30:47.957Z,17.6
2022-08-30T00:31:48.809Z,17.6
2022-08-30T00:32:49.218Z,17.6
2022-08-30T00:33:49.606Z,17.6
2022-08-30T00:34:50.013Z,17.6
2022-08-30T00:35:50.379Z,17.7
2022-08-30T00:36:51.109Z,17.7
2022-08-30T00:37:51.506Z,17.7
2022-08-30T00:38:51.868Z,17.7
2022-08-30T00:39:52.249Z,17.7
2022-08-30T00:40:52.634Z,17.7
2022-08-30T00:41:53.339Z,17.7
2022-08-30T00:42:58.129Z,17.7
2022-08-30T00:44:00.838Z,17.7
2022-08-30T00:45:01.392Z,17.7
2022-08-30T00:46:01.827Z,17.7
2022-08-30T00:47:02.653Z,17.7
2022-08-30T00:48:03.039Z,17.7
2022-08-30T00:49:03.425Z,17.7
2022-08-30T00:50:03.817Z,17.7
2022-08-30T00:51:04.209Z,17.7
2022-08-30T00:52:04.946Z,17.7
2022-08-30T00:53:05.400Z,17.7
2022-08-30T00:54:05.774Z,17.7
2022-08-30T00:55:06.159Z,17.7
2022-08-30T00:56:06.524Z,17.7
2022-08-30T00:57:07.351Z,17.7
2022-08-30T00:58:07.745Z,17.7
2022-08-30T00:59:08.105Z,17.7
2022-08-30T01:00:08.502Z,17.7
2022-08-30T01:01:08.981Z,17.7
2022-08-30T01:02:09.814Z,17.7
2022-08-30T01:03:10.223Z,17.7
2022-08-30T01:04:10.633Z,17.7
2022-08-30T01:05:11.018Z,17.7
2022-08-30T01:06:16.443Z,17.7
2022-08-30T01:07:17.051Z,17.7
2022-08-30T01:08:17.444Z,17.7
2022-08-30T01:09:17.846Z,17.7
2022-08-30T01:10:18.228Z,17.7
2022-08-30T01:11:18.594Z,17.7
2022-08-30T01:12:19.299Z,17.7
2022-08-30T01:13:19.671Z,17.7
2022-08-30T01:14:20.296Z,17.7
2022-08-30T01:15:20.685Z,17.7
2022-08-30T01:16:21.783Z,17.8
2022-08-30T01:17:23.313Z,17.8
2022-08-30T01:18:24.593Z,17.8
2022-08-30T01:19:24.990Z,17.8
2022-08-30T01:20:25.383Z,17.8
2022-08-30T01:21:26.116Z,17.8
2022-08-30T01:22:26.492Z,17.8
2022-08-30T01:23:26.863Z,17.8
2022-08-30T01:24:28.170Z,17.8
2022-08-30T01:25:28.553Z,17.8
2022-08-30T01:26:29.307Z,17.8
2022-08-30T01:27:30.107Z,17.8
2022-08-30T01:28:30.510Z,17.8
2022-08-30T01:29:30.871Z,17.8
2022-08-30T01:30:31.315Z,17.8
2022-08-30T01:31:32.146Z,17.8
2022-08-30T01:32:32.536Z,17.8
2022-08-30T01:33:32.897Z,17.8
2022-08-30T01:34:33.292Z,17.7
2022-08-30T01:35:33.707Z,17.7
2022-08-30T01:36:34.484Z,17.7
2022-08-30T01:37:34.881Z,17.7
2022-08-30T01:38:35.282Z,17.7
2022-08-30T01:39:35.659Z,17.7
2022-08-30T01:40:36.188Z,17.7
2022-08-30T01:41:37.043Z,17.7
2022-08-30T01:42:37.830Z,17.7
2022-08-30T01:43:38.196Z,17.7
2022-08-30T01:44:38.590Z,17.7
2022-08-30T01:45:39.051Z,17.7
2022-08-30T01:46:39.859Z,17.7
2022-08-30T01:47:40.224Z,17.7
2022-08-30T01:48:40.691Z,17.7
2022-08-30T01:49:41.116Z,17.7
2022-08-30T01:50:41.503Z,17.7
2022-08-30T01:51:42.226Z,17.7
2022-08-30T01:52:42.591Z,17.6
2022-08-30T01:53:43.010Z,17.6
2022-08-30T01:54:43.385Z,17.6
2022-08-30T01:55:43.793Z,17.6
2022-08-30T01:56:44.586Z,17.6
2022-08-30T01:57:45.324Z,17.6
2022-08-30T01:58:45.751Z,17.6
2022-08-30T01:59:46.139Z,17.6
2022-08-30T02:00:46.527Z,17.6
2022-08-30T02:01:47.434Z,17.5
2022-08-30T02:02:47.905Z,17.5
2022-08-30T02:03:48.367Z,17.5
2022-08-30T02:04:49.132Z,17.5
2022-08-30T02:05:49.508Z,17.5
2022-08-30T02:06:50.187Z,17.5
2022-08-30T02:07:50.563Z,17.5
2022-08-30T02:08:50.921Z,17.5
2022-08-30T02:09:51.303Z,17.5
2022-08-30T02:10:51.703Z,17.5
2022-08-30T02:11:52.395Z,17.5
2022-08-30T02:12:53.059Z,17.5
2022-08-30T02:13:53.456Z,17.4
2022-08-30T02:14:53.818Z,17.4
2022-08-30T02:15:54.217Z,17.4
2022-08-30T02:16:55.061Z,17.4
2022-08-30T02:17:55.506Z,17.4
2022-08-30T02:18:55.913Z,17.4
2022-08-30T02:19:56.312Z,17.4
2022-08-30T02:20:56.706Z,17.4
2022-08-30T02:21:57.393Z,17.4
2022-08-30T02:23:01.213Z,17.4
2022-08-30T02:24:01.831Z,17.4
2022-08-30T02:25:02.226Z,17.4
2022-08-30T02:26:02.595Z,17.3
2022-08-30T02:27:03.338Z,17.3
2022-08-30T02:28:04.043Z,17.3
2022-08-30T02:29:04.427Z,17.3
2022-08-30T02:30:04.798Z,17.3
2022-08-30T02:31:05.271Z,17.3
2022-08-30T02:32:06.109Z,17.3
2022-08-30T02:33:06.507Z,17.3
2022-08-30T02:34:06.900Z,17.3
2022-08-30T02:35:07.282Z,17.3
2022-08-30T02:36:07.668Z,17.3
2022-08-30T02:37:08.513Z,17.3
2022-08-30T02:38:08.908Z,17.3
2022-08-30T02:39:09.335Z,17.3
2022-08-30T02:40:09.764Z,17.3
2022-08-30T02:41:10.242Z,17.3
2022-08-30T02:42:10.944Z,17.3
2022-08-30T02:43:11.606Z,17.3
2022-08-30T02:44:12.001Z,17.3
2022-08-30T02:45:12.400Z,17.3
2022-08-30T02:46:12.884Z,17.2
2022-08-30T02:47:13.606Z,17.2
2022-08-30T02:48:13.962Z,17.2
2022-08-30T02:49:32.767Z,17.2
2022-08-30T02:50:33.787Z,17.2
2022-08-30T02:51:34.549Z,17.2
2022-08-30T02:52:34.909Z,17.2
2022-08-30T02:53:35.317Z,17.2
2022-08-30T02:54:37.264Z,17.2
2022-08-30T02:55:37.627Z,17.2
2022-08-30T02:56:38.448Z,17.2
2022-08-30T02:57:38.834Z,17.2
2022-08-30T02:58:39.537Z,17.2
2022-08-30T02:59:39.927Z,17.1
2022-08-30T03:00:41.017Z,17.1
2022-08-30T03:01:41.901Z,17.1
2022-08-30T03:02:42.302Z,17.1
2022-08-30T03:03:42.701Z,17.1
2022-08-30T03:04:43.147Z,17.1
2022-08-30T03:05:43.549Z,17.1
2022-08-30T03:06:44.373Z,17.1
2022-08-30T03:07:44.764Z,17.1
2022-08-30T03:08:45.162Z,17.1
2022-08-30T03:09:45.551Z,17.1
2022-08-30T03:10:45.949Z,17.1
2022-08-30T03:11:46.690Z,17.1
2022-08-30T03:12:47.100Z,17.1
2022-08-30T03:13:47.853Z,17.1
2022-08-30T03:14:48.250Z,17.1
2022-08-30T03:15:48.607Z,17
2022-08-30T03:16:49.361Z,17
2022-08-30T03:17:49.786Z,17
2022-08-30T03:18:50.148Z,17
2022-08-30T03:19:50.515Z,17
2022-08-30T03:20:54.122Z,17
2022-08-30T03:21:55.416Z,17
2022-08-30T03:22:55.839Z,17
2022-08-30T03:23:56.248Z,17
2022-08-30T03:24:56.616Z,17
2022-08-30T03:25:56.995Z,17
2022-08-30T03:26:57.680Z,17
2022-08-30T03:27:58.060Z,17
2022-08-30T03:28:58.768Z,17
2022-08-30T03:29:59.140Z,17
2022-08-30T03:30:59.527Z,17
2022-08-30T03:32:00.310Z,16.9
2022-08-30T03:33:00.686Z,16.9
2022-08-30T03:34:01.223Z,16.9
2022-08-30T03:35:01.611Z,16.9
2022-08-30T03:36:01.994Z,16.9
2022-08-30T03:37:02.706Z,16.9
2022-08-30T03:38:03.066Z,16.9
2022-08-30T03:39:03.451Z,16.9
2022-08-30T03:40:07.545Z,16.8
2022-08-30T03:41:08.231Z,16.8
2022-08-30T03:42:09.860Z,16.8
2022-08-30T03:43:10.237Z,16.8
2022-08-30T03:44:10.919Z,16.8
2022-08-30T03:45:11.305Z,16.8
2022-08-30T03:46:11.721Z,16.8
2022-08-30T03:47:12.485Z,16.8
2022-08-30T03:48:12.871Z,16.8
2022-08-30T03:49:13.266Z,16.8
2022-08-30T03:50:13.670Z,16.8
2022-08-30T03:51:14.070Z,16.8
2022-08-30T03:52:14.863Z,16.8
2022-08-30T03:53:16.879Z,16.8
2022-08-30T03:54:17.383Z,16.8
2022-08-30T03:55:17.792Z,16.8
2022-08-30T03:56:18.192Z,16.8
2022-08-30T03:57:20.291Z,16.8
2022-08-30T03:58:25.034Z,16.8
2022-08-30T03:59:25.448Z,16.8
2022-08-30T04:00:25.809Z,16.8
2022-08-30T04:01:26.305Z,16.8
2022-08-30T04:02:26.800Z,16.8
2022-08-30T04:03:27.257Z,16.8
2022-08-30T04:04:27.653Z,16.8
2022-08-30T04:05:28.065Z,16.8
2022-08-30T04:06:28.447Z,16.8
2022-08-30T04:07:29.219Z,16.8
2022-08-30T04:08:29.614Z,16.8
2022-08-30T04:09:29.975Z,16.8
2022-08-30T04:10:30.335Z,16.8
2022-08-30T04:11:31.151Z,16.8
2022-08-30T04:12:31.655Z,16.8
2022-08-30T04:13:32.067Z,16.8
2022-08-30T04:14:33.218Z,16.8
2022-08-30T04:15:33.578Z,16.8
2022-08-30T04:16:34.326Z,16.8
2022-08-30T04:17:34.771Z,16.8
2022-08-30T04:18:35.141Z,16.8
2022-08-30T04:19:35.497Z,16.8
2022-08-30T04:20:35.855Z,16.8
2022-08-30T04:21:42.699Z,16.8
2022-08-30T04:22:43.757Z,16.8
2022-08-30T04:23:44.163Z,16.7
2022-08-30T04:24:44.526Z,16.7
2022-08-30T04:25:44.925Z,16.7
2022-08-30T04:26:45.668Z,16.7
2022-08-30T04:27:46.164Z,16.7
2022-08-30T04:28:46.552Z,16.7
2022-08-30T04:29:47.348Z,16.7
2022-08-30T04:30:47.747Z,16.7
2022-08-30T04:31:48.585Z,16.7
2022-08-30T04:32:49.052Z,16.7
2022-08-30T04:33:49.439Z,16.7
2022-08-30T04:34:49.800Z,16.7
2022-08-30T04:35:50.284Z,16.7
2022-08-30T04:36:50.975Z,16.7
2022-08-30T04:37:51.372Z,16.7
2022-08-30T04:38:51.786Z,16.7
2022-08-30T04:39:52.188Z,16.7
2022-08-30T04:40:52.590Z,16.7
2022-08-30T04:41:53.407Z,16.7
2022-08-30T04:42:53.812Z,16.6
2022-08-30T04:43:54.206Z,16.6
2022-08-30T04:44:54.946Z,16.6
2022-08-30T04:45:55.403Z,16.6
2022-08-30T04:46:56.206Z,16.6
2022-08-30T04:47:57.244Z,16.5
2022-08-30T04:48:57.773Z,16.5
2022-08-30T04:49:58.169Z,16.5
2022-08-30T04:50:58.545Z,16.5
2022-08-30T04:51:59.259Z,16.5
2022-08-30T04:52:59.639Z,16.5
2022-08-30T04:54:00.020Z,16.5
2022-08-30T04:55:00.426Z,16.5
2022-08-30T04:56:00.788Z,16.4
2022-08-30T04:57:01.594Z,16.4
2022-08-30T04:58:01.967Z,16.4
2022-08-30T04:59:02.365Z,16.4
2022-08-30T05:00:03.064Z,16.4
2022-08-30T05:01:03.490Z,16.4
2022-08-30T05:02:05.345Z,16.4
2022-08-30T05:03:05.745Z,16.4
2022-08-30T05:04:06.172Z,16.4
2022-08-30T05:05:06.575Z,16.4
2022-08-30T05:06:06.967Z,16.4
2022-08-30T05:07:07.658Z,16.4
2022-08-30T05:08:08.057Z,16.4
2022-08-30T05:09:08.418Z,16.4
2022-08-30T05:10:11.351Z,16.4
2022-08-30T05:11:12.090Z,16.4
2022-08-30T05:12:12.843Z,16.4
2022-08-30T05:13:13.876Z,16.4
2022-08-30T05:14:14.326Z,16.4
2022-08-30T05:15:15.003Z,16.4
2022-08-30T05:16:15.395Z,16.4
2022-08-30T05:17:16.248Z,16.4
2022-08-30T05:18:16.647Z,16.4
2022-08-30T05:19:17.050Z,16.4
2022-08-30T05:20:17.424Z,16.4
2022-08-30T05:21:17.780Z,16.4
2022-08-30T05:22:18.453Z,16.4
2022-08-30T05:23:18.913Z,16.4
2022-08-30T05:24:19.368Z,16.4
2022-08-30T05:25:19.785Z,16.5
2022-08-30T05:26:20.205Z,16.5
2022-08-30T05:27:20.589Z,16.5
2022-08-30T05:28:24.292Z,16.5
2022-08-30T05:29:26.372Z,16.5
2022-08-30T05:30:27.154Z,16.5
2022-08-30T05:31:27.631Z,16.5
2022-08-30T05:32:28.090Z,16.5
2022-08-30T05:33:28.451Z,16.5
2022-08-30T05:34:28.856Z,16.6
2022-08-30T05:35:29.224Z,16.6
2022-08-30T05:36:29.607Z,16.6
2022-08-30T05:37:30.419Z,16.6
2022-08-30T05:38:30.798Z,16.6
2022-08-30T05:39:44.950Z,16.6
2022-08-30T05:40:52.267Z,16.6
2022-08-30T05:41:53.242Z,16.6
2022-08-30T05:42:53.828Z,16.6
2022-08-30T05:43:54.226Z,16.6
2022-08-30T05:44:54.628Z,16.6
2022-08-30T05:45:55.430Z,16.6
2022-08-30T05:46:56.164Z,16.6
2022-08-30T05:47:56.575Z,16.6
2022-08-30T05:48:56.985Z,16.6
2022-08-30T05:49:57.390Z,16.6
2022-08-30T05:50:57.790Z,16.6
2022-08-30T05:51:58.589Z,16.8
2022-08-30T05:52:58.987Z,16.8
2022-08-30T05:53:59.383Z,16.8
2022-08-30T05:54:59.781Z,16.8
2022-08-30T05:56:00.142Z,16.8
2022-08-30T05:57:00.928Z,16.8
2022-08-30T05:58:01.324Z,16.8
2022-08-30T05:59:01.685Z,16.8
2022-08-30T06:00:02.054Z,16.8
2022-08-30T06:01:02.740Z,16.8
2022-08-30T06:02:03.625Z,16.8
2022-08-30T06:03:04.143Z,16.8
2022-08-30T06:04:04.578Z,16.8
2022-08-30T06:05:04.986Z,16.8
2022-08-30T06:06:06.144Z,17.1
2022-08-30T06:07:07.947Z,17.1
2022-08-30T06:08:09.890Z,17.1
2022-08-30T06:09:10.317Z,17.2
2022-08-30T06:10:10.695Z,17.2
2022-08-30T06:11:11.058Z,17.3
2022-08-30T06:12:11.775Z,17.3
2022-08-30T06:13:12.169Z,17.3
2022-08-30T06:14:12.571Z,17.3
2022-08-30T06:15:12.938Z,17.3
2022-08-30T06:16:13.710Z,17.3
2022-08-30T06:17:14.401Z,17.3
2022-08-30T06:18:14.818Z,17.3
2022-08-30T06:19:15.195Z,17.3
2022-08-30T06:20:15.591Z,17.3
2022-08-30T06:21:16.052Z,17.3
2022-08-30T06:22:16.861Z,17.3
2022-08-30T06:23:17.226Z,17.3
2022-08-30T06:24:17.599Z,17.3
2022-08-30T06:25:18.719Z,17.3
2022-08-30T06:26:19.175Z,17.3
2022-08-30T06:27:19.859Z,17.3
2022-08-30T06:28:20.250Z,17.3
2022-08-30T06:29:20.641Z,17.3
2022-08-30T06:30:20.997Z,17.3
2022-08-30T06:31:21.837Z,17.3
2022-08-30T06:32:22.292Z,17.3
2022-08-30T06:33:22.693Z,17.3
2022-08-30T06:34:23.088Z,17.3
2022-08-30T06:35:23.452Z,17.6
2022-08-30T06:36:23.834Z,17.6
2022-08-30T06:37:29.569Z,17.6
2022-08-30T06:38:30.652Z,17.6
2022-08-30T06:39:31.044Z,17.6
2022-08-30T06:40:31.529Z,17.6
2022-08-30T06:41:32.382Z,17.6
2022-08-30T06:42:32.772Z,17.6
2022-08-30T06:43:33.162Z,17.6
2022-08-30T06:44:33.543Z,17.6
2022-08-30T06:45:34.014Z,17.8
2022-08-30T06:46:34.745Z,17.8
2022-08-30T06:47:35.174Z,17.9
2022-08-30T06:48:35.555Z,17.9
2022-08-30T06:49:35.915Z,17.9
2022-08-30T06:50:36.307Z,17.9
2022-08-30T06:51:37.058Z,17.9
2022-08-30T06:52:37.442Z,18.1
2022-08-30T06:53:38.672Z,18.1
2022-08-30T06:54:41.151Z,18.1
2022-08-30T06:55:41.558Z,18.1
2022-08-30T06:56:57.632Z,18.2
2022-08-30T06:57:59.133Z,18.2
2022-08-30T06:58:59.501Z,18.3
2022-08-30T06:59:59.884Z,18.3
2022-08-30T07:01:00.295Z,18.3
2022-08-30T07:02:01.153Z,18.3
2022-08-30T07:03:01.717Z,18.4
2022-08-30T07:04:02.173Z,18.4
2022-08-30T07:05:02.576Z,18.4
2022-08-30T07:06:02.968Z,18.4
2022-08-30T07:07:03.698Z,18.5
2022-08-30T07:08:04.129Z,18.6
2022-08-30T07:09:04.489Z,18.6
2022-08-30T07:10:04.872Z,18.6
2022-08-30T07:11:05.231Z,18.7
2022-08-30T07:12:06.050Z,18.6
2022-08-30T07:13:06.443Z,18.6
2022-08-30T07:14:06.808Z,18.6
2022-08-30T07:15:07.204Z,18.6
2022-08-30T07:16:07.635Z,18.6
2022-08-30T07:17:08.503Z,18.6
2022-08-30T07:18:08.868Z,18.6
2022-08-30T07:19:09.232Z,18.6
2022-08-30T07:20:18.934Z,18.6
2022-08-30T07:21:19.335Z,18.6
2022-08-30T07:22:20.094Z,18.6
2022-08-30T07:23:20.466Z,18.6
2022-08-30T07:24:20.859Z,18.6
2022-08-30T07:25:21.278Z,18.6
2022-08-30T07:26:21.670Z,18.6
2022-08-30T07:27:22.091Z,18.9
2022-08-30T07:28:22.487Z,18.9
2022-08-30T07:29:22.879Z,18.9
2022-08-30T07:30:23.296Z,18.9
2022-08-30T07:31:24.137Z,19
2022-08-30T07:32:24.538Z,19
2022-08-30T07:33:24.937Z,19
2022-08-30T07:34:27.449Z,19.1
2022-08-30T07:35:27.992Z,19.1
2022-08-30T07:36:28.736Z,19.1
2022-08-30T07:37:29.098Z,19.1
2022-08-30T07:38:30.292Z,19.1
2022-08-30T07:39:31.821Z,19.2
2022-08-30T07:40:32.567Z,19.2
2022-08-30T07:41:33.307Z,19.2
2022-08-30T07:42:33.705Z,19.2
2022-08-30T07:43:34.062Z,19.2
2022-08-30T07:44:34.421Z,19.2
2022-08-30T07:45:35.376Z,19.2
2022-08-30T07:46:36.204Z,19.2
2022-08-30T07:47:37.089Z,19.2
2022-08-30T07:48:37.492Z,19.2
2022-08-30T07:49:38.162Z,19.2
2022-08-30T07:50:38.553Z,19.2
2022-08-30T07:51:39.277Z,19.2
2022-08-30T07:52:39.707Z,19.2
2022-08-30T07:53:40.106Z,19.2
2022-08-30T07:54:40.506Z,19.2
2022-08-30T07:55:40.896Z,19.2
2022-08-30T07:56:41.664Z,19.2
2022-08-30T07:57:42.067Z,19.2
2022-08-30T07:58:42.471Z,19.2
2022-08-30T07:59:42.879Z,19.2
2022-08-30T08:00:43.240Z,19.2
2022-08-30T08:01:44.170Z,19.2
2022-08-30T08:02:44.893Z,19.2
2022-08-30T08:03:45.318Z,19.2
2022-08-30T08:04:45.703Z,19.2
2022-08-30T08:05:46.111Z,19.2
2022-08-30T08:06:46.803Z,19.2
2022-08-30T08:07:47.165Z,19.2
2022-08-30T08:08:47.558Z,19.2
2022-08-30T08:09:47.959Z,19.2
2022-08-30T08:10:48.317Z,19.2
2022-08-30T08:11:49.100Z,19.2
2022-08-30T08:12:49.480Z,19.2
2022-08-30T08:13:53.091Z,19.2
2022-08-30T08:14:54.216Z,19.2
2022-08-30T08:15:54.671Z,19.2
2022-08-30T08:16:55.489Z,19.2
2022-08-30T08:17:56.256Z,19.2
2022-08-30T08:18:56.620Z,19.2
2022-08-30T08:19:56.980Z,19.2
2022-08-30T08:20:57.374Z,19.2
2022-08-30T08:22:19.423Z,19.2
2022-08-30T08:23:20.770Z,19.2
2022-08-30T08:24:21.156Z,19.2
2022-08-30T08:25:21.570Z,19.2
2022-08-30T08:26:21.965Z,20
2022-08-30T08:27:22.382Z,20
2022-08-30T08:28:22.770Z,20
2022-08-30T08:29:23.173Z,20
2022-08-30T08:30:23.571Z,20
2022-08-30T08:31:25.525Z,20.1
2022-08-30T08:32:29.485Z,20.1
2022-08-30T08:33:30.131Z,20.2
2022-08-30T08:34:30.556Z,20.2
2022-08-30T08:35:30.956Z,20.2
2022-08-30T08:36:31.472Z,20.2
2022-08-30T08:37:32.343Z,20.2
2022-08-30T08:38:32.736Z,20.2
2022-08-30T08:39:33.105Z,20.5
2022-08-30T08:40:33.547Z,20.5
2022-08-30T08:41:34.313Z,20.5
2022-08-30T08:42:34.728Z,20.7
2022-08-30T08:43:35.145Z,20.8
2022-08-30T08:44:35.646Z,20.9
2022-08-30T08:45:36.093Z,20.9
2022-08-30T08:46:37.735Z,20.9
2022-08-30T08:47:38.985Z,21
2022-08-30T08:48:59.210Z,21
2022-08-30T08:50:00.540Z,21
2022-08-30T08:51:02.780Z,21
2022-08-30T08:52:03.752Z,21
2022-08-30T08:53:04.115Z,21.2
2022-08-30T08:54:04.520Z,21.2
2022-08-30T08:55:04.917Z,21.2
2022-08-30T08:56:05.338Z,21.3
2022-08-30T08:57:06.029Z,21.3
2022-08-30T08:58:06.394Z,21.4
2022-08-30T08:59:06.749Z,21.4
2022-08-30T09:00:07.159Z,21.4
2022-08-30T09:01:07.596Z,21.5
2022-08-30T09:02:08.363Z,21.5
2022-08-30T09:03:08.875Z,21.6
2022-08-30T09:04:09.830Z,21.6
2022-08-30T09:05:10.265Z,21.7
2022-08-30T09:06:10.670Z,21.7
2022-08-30T09:07:11.451Z,21.7
2022-08-30T09:08:11.888Z,21.7
2022-08-30T09:09:12.302Z,21.9
2022-08-30T09:10:12.713Z,21.9
2022-08-30T09:11:13.105Z,21.9
2022-08-30T09:12:13.874Z,22
2022-08-30T09:13:14.578Z,22
2022-08-30T09:14:15.156Z,22
2022-08-30T09:15:16.207Z,22.1
2022-08-30T09:16:22.322Z,22.1
2022-08-30T09:17:23.021Z,22.1
2022-08-30T09:18:23.391Z,22.2
2022-08-30T09:19:24.066Z,22.2
2022-08-30T09:20:24.467Z,22.2
2022-08-30T09:21:24.837Z,22.2
2022-08-30T09:22:25.239Z,22.2
2022-08-30T09:23:25.970Z,22.2
2022-08-30T09:24:26.339Z,22.4
2022-08-30T09:25:26.747Z,22.4
2022-08-30T09:26:27.138Z,22.4
2022-08-30T09:27:27.518Z,22.4
2022-08-30T09:28:27.913Z,22.4
2022-08-30T09:29:28.299Z,22.4
2022-08-30T09:30:28.802Z,22.5
2022-08-30T09:31:29.588Z,22.5
2022-08-30T09:32:29.977Z,22.5
2022-08-30T09:33:30.898Z,22.5
2022-08-30T09:34:31.706Z,22.6
2022-08-30T09:35:32.106Z,22.6
2022-08-30T09:36:32.879Z,22.6
2022-08-30T09:37:33.258Z,22.7
2022-08-30T09:38:33.741Z,22.8
2022-08-30T09:39:34.155Z,22.8
2022-08-30T09:40:34.735Z,22.8
2022-08-30T09:41:37.087Z,22.9
2022-08-30T09:42:37.550Z,22.9
2022-08-30T09:43:38.092Z,22.9
2022-08-30T09:44:39.069Z,22.9
2022-08-30T09:45:39.443Z,23
2022-08-30T09:46:40.931Z,23
2022-08-30T09:47:41.334Z,23
2022-08-30T09:48:41.721Z,23
2022-08-30T09:49:42.458Z,23.1
2022-08-30T09:50:42.862Z,23.1
2022-08-30T09:51:44.037Z,23.1
2022-08-30T09:52:44.712Z,23.1
2022-08-30T09:54:07.274Z,23.1
2022-08-30T09:55:17.358Z,23.1
2022-08-30T09:56:17.741Z,23.2
2022-08-30T09:57:18.434Z,23.2
2022-08-30T09:58:19.154Z,23.2
2022-08-30T09:59:19.710Z,23.3
2022-08-30T10:00:20.073Z,23.3
2022-08-30T10:01:20.630Z,23.3
2022-08-30T10:02:23.311Z,23.3
2022-08-30T10:03:35.657Z,23.3
2022-08-30T10:04:38.999Z,23.2
2022-08-30T10:05:39.785Z,23.2
2022-08-30T10:06:42.211Z,23.2
2022-08-30T10:07:42.642Z,23.2
2022-08-30T10:08:43.038Z,23.2
2022-08-30T10:09:44.236Z,23.2
2022-08-30T10:10:45.992Z,23.2
2022-08-30T10:11:46.796Z,23.2
2022-08-30T10:12:47.764Z,23.3
2022-08-30T10:13:48.179Z,23.3
2022-08-30T10:14:49.128Z,23.3
2022-08-30T10:15:49.499Z,23.3
2022-08-30T10:16:50.227Z,23.3
2022-08-30T10:17:50.816Z,23.3
2022-08-30T10:18:51.510Z,23.3
2022-08-30T10:19:52.257Z,23.3
2022-08-30T10:20:53.045Z,23.3
2022-08-30T10:21:53.830Z,23.3
2022-08-30T10:22:54.253Z,23.4
2022-08-30T10:23:59.224Z,23.4
2022-08-30T10:24:59.612Z,23.4
2022-08-30T10:26:00.015Z,23.4
2022-08-30T10:27:00.703Z,23.4
2022-08-30T10:28:01.116Z,23.4
2022-08-30T10:29:03.869Z,23.4
2022-08-30T10:30:04.240Z,23.4
2022-08-30T10:31:04.633Z,23.4
2022-08-30T10:32:07.416Z,23.4
2022-08-30T10:33:07.801Z,23.4
2022-08-30T10:34:08.465Z,23.4
2022-08-30T10:35:08.864Z,23.4
2022-08-30T10:36:10.493Z,23.4
2022-08-30T10:37:11.481Z,23.3
2022-08-30T10:38:11.890Z,23.3
2022-08-30T10:39:12.305Z,23.3
2022-08-30T10:40:15.602Z,23.3
2022-08-30T10:41:17.973Z,23.3
2022-08-30T10:42:19.856Z,23.3
2022-08-30T10:43:20.221Z,23.3
2022-08-30T10:44:22.557Z,23.3
2022-08-30T10:45:23.205Z,23.3
2022-08-30T10:46:24.019Z,23.3
2022-08-30T10:47:24.375Z,23.3
2022-08-30T10:48:24.769Z,23.3
2022-08-30T10:49:25.124Z,23.3
2022-08-30T10:50:25.484Z,23.4
2022-08-30T10:51:26.155Z,23.5
2022-08-30T10:52:26.562Z,23.5
2022-08-30T10:53:26.927Z,23.5
2022-08-30T10:54:27.318Z,23.5
2022-08-30T10:55:29.471Z,23.5
2022-08-30T10:56:30.435Z,23.6
2022-08-30T10:57:30.796Z,23.6
2022-08-30T10:58:31.184Z,23.6
2022-08-30T10:59:31.556Z,23.6
2022-08-30T11:00:33.305Z,23.7
2022-08-30T11:01:34.167Z,23.7
2022-08-30T11:02:34.593Z,23.7
2022-08-30T11:03:35.000Z,23.7
2022-08-30T11:04:35.364Z,23.7
2022-08-30T11:05:35.742Z,23.7
2022-08-30T11:06:41.376Z,23.7
2022-08-30T11:07:45.397Z,23.7
2022-08-30T11:08:45.817Z,23.7
2022-08-30T11:09:46.210Z,23.7
2022-08-30T11:10:46.960Z,23.7
2022-08-30T11:11:50.757Z,23.7
2022-08-30T11:12:52.068Z,23.7
2022-08-30T11:13:56.914Z,23.7
2022-08-30T11:14:57.594Z,23.8
2022-08-30T11:15:57.983Z,23.8
2022-08-30T11:16:58.783Z,23.8
2022-08-30T11:17:59.144Z,23.8
2022-08-30T11:18:59.543Z,23.8
2022-08-30T11:19:59.948Z,23.8
2022-08-30T11:21:00.329Z,23.8
2022-08-30T11:22:01.071Z,23.8
2022-08-30T11:23:01.443Z,23.8
2022-08-30T11:24:01.842Z,23.8
2022-08-30T11:25:02.221Z,23.9
2022-08-30T11:26:15.936Z,23.9
2022-08-30T11:27:21.015Z,23.9
2022-08-30T11:28:22.112Z,23.9
2022-08-30T11:29:22.517Z,24
2022-08-30T11:30:27.021Z,24
2022-08-30T11:31:27.746Z,24
2022-08-30T11:32:28.164Z,24
2022-08-30T11:33:28.561Z,24
2022-08-30T11:34:29.668Z,24
2022-08-30T11:35:30.035Z,24
2022-08-30T11:36:37.455Z,24
2022-08-30T11:37:38.936Z,24
2022-08-30T11:38:39.306Z,24
2022-08-30T11:39:39.667Z,24.2
2022-08-30T11:40:40.504Z,24.2
2022-08-30T11:41:43.851Z,24.2
2022-08-30T11:42:46.802Z,24.2
2022-08-30T11:43:48.827Z,24.1
2022-08-30T11:44:49.567Z,24.1
2022-08-30T11:45:49.970Z,24.1
2022-08-30T11:46:51.356Z,24.1
2022-08-30T11:47:51.745Z,24.1
2022-08-30T11:48:54.231Z,24.1
2022-08-30T11:49:55.988Z,24.1
2022-08-30T11:50:56.383Z,24.1
2022-08-30T11:52:23.884Z,24.1
2022-08-30T11:53:28.491Z,24.1
2022-08-30T11:54:28.891Z,24.1
2022-08-30T11:55:29.644Z,24.1
2022-08-30T11:56:30.002Z,24.1
2022-08-30T11:57:30.948Z,24.1
2022-08-30T11:58:31.451Z,24.1
2022-08-30T11:59:31.850Z,24.1
2022-08-30T12:00:34.942Z,24.1
2022-08-30T12:01:51.891Z,24.1
2022-08-30T12:02:52.627Z,24.1
2022-08-30T12:03:53.124Z,24.1
2022-08-30T12:04:53.528Z,24.1
2022-08-30T12:05:53.934Z,24.2
2022-08-30T12:06:54.649Z,24.2
2022-08-30T12:07:55.057Z,24.2
2022-08-30T12:10:32.154Z,24.2
2022-08-30T12:11:33.007Z,24.3
2022-08-30T12:12:33.398Z,24.3
2022-08-30T12:13:33.789Z,24.3
2022-08-30T12:14:34.198Z,24.4
2022-08-30T12:15:34.580Z,24.4
2022-08-30T12:16:35.267Z,24.4
2022-08-30T12:17:35.719Z,24.4
2022-08-30T12:18:36.115Z,24.4
2022-08-30T12:19:36.511Z,24.4
2022-08-30T12:20:41.780Z,24.4
2022-08-30T12:21:44.727Z,24.4
2022-08-30T12:22:45.708Z,24.4
2022-08-30T12:23:46.115Z,24.5
2022-08-30T12:24:46.929Z,24.5
2022-08-30T12:25:47.680Z,24.5
2022-08-30T12:26:48.561Z,24.6
2022-08-30T12:27:49.869Z,24.6
2022-08-30T12:28:50.889Z,24.6
2022-08-30T12:29:51.261Z,24.6
2022-08-30T12:30:51.656Z,24.6
2022-08-30T12:31:52.528Z,24.6
2022-08-30T12:32:52.976Z,24.7
2022-08-30T12:33:53.337Z,24.7
2022-08-30T12:34:53.741Z,24.7
2022-08-30T12:35:54.096Z,24.7
2022-08-30T12:36:55.379Z,24.7
2022-08-30T12:37:55.742Z,24.8
2022-08-30T12:38:56.165Z,24.8
2022-08-30T12:39:57.088Z,24.8
2022-08-30T12:40:57.653Z,24.8
2022-08-30T12:41:58.397Z,24.8
2022-08-30T12:42:58.757Z,24.8
2022-08-30T12:43:59.157Z,24.8
2022-08-30T12:44:59.572Z,24.8
2022-08-30T12:46:00.843Z,24.8
2022-08-30T12:47:08.111Z,24.9
2022-08-30T12:48:08.511Z,24.9
2022-08-30T12:49:10.423Z,24.9
2022-08-30T12:50:11.972Z,24.9
2022-08-30T12:51:15.643Z,24.9
2022-08-30T12:52:16.452Z,24.9
2022-08-30T12:53:16.851Z,25
2022-08-30T12:54:17.246Z,25
2022-08-30T12:55:19.377Z,25
2022-08-30T12:56:35.098Z,25
2022-08-30T12:57:50.104Z,25
2022-08-30T12:58:50.519Z,25
2022-08-30T12:59:56.802Z,25
2022-08-30T13:01:00.282Z,25
2022-08-30T13:02:01.273Z,25
2022-08-30T13:03:01.713Z,25
2022-08-30T13:04:02.660Z,25.1
2022-08-30T13:05:03.048Z,25.1
2022-08-30T13:06:03.425Z,25.2
2022-08-30T13:07:04.237Z,25.2
2022-08-30T13:08:04.636Z,25.2
2022-08-30T13:09:04.999Z,25.2
2022-08-30T13:10:05.398Z,25.1
2022-08-30T13:11:08.521Z,25.1
2022-08-30T13:12:10.170Z,25.1
2022-08-30T13:13:10.638Z,25.1
2022-08-30T13:14:11.101Z,25.1
2022-08-30T13:15:13.069Z,25.1
2022-08-30T13:16:13.595Z,25.1
2022-08-30T13:17:14.588Z,25.1
2022-08-30T13:18:15.079Z,25.1
2022-08-30T13:19:18.460Z,25.1
2022-08-30T13:20:18.854Z,25.1
2022-08-30T13:21:19.272Z,25.1
2022-08-30T13:22:20.328Z,25.1
2022-08-30T13:23:20.782Z,25.1
2022-08-30T13:24:25.188Z,25.1
2022-08-30T13:25:25.992Z,25.1
2022-08-30T13:26:26.733Z,25.1
2022-08-30T13:27:27.377Z,25.1
2022-08-30T13:28:27.771Z,25.1
2022-08-30T13:29:28.140Z,25.1
2022-08-30T13:30:28.515Z,25.1
2022-08-30T13:31:29.202Z,25.1
2022-08-30T13:32:30.913Z,25.3
2022-08-30T13:33:31.307Z,25.3
2022-08-30T13:34:31.705Z,25.3
2022-08-30T13:35:32.066Z,25.3
2022-08-30T13:36:32.563Z,25.3
2022-08-30T13:37:51.376Z,25.3
2022-08-30T13:38:52.260Z,25.3